createdAt,value
2023-04-16T00:01:51.695Z,5.28
2023-04-16T00:04:18.993Z,2.95
2023-04-16T00:06:45.995Z,3.65
2023-04-16T00:09:12.829Z,5.40
2023-04-16T00:11:39.602Z,4.47
2023-04-16T00:14:06.355Z,6.80
2023-04-16T00:16:33.621Z,5.03
2023-04-16T00:19:00.462Z,5.97
2023-04-16T00:21:27.578Z,4.13
2023-04-16T00:23:54.317Z,6.07
2023-04-16T00:26:21.192Z,5.35
2023-04-16T00:28:47.998Z,5.00
2023-04-16T00:31:14.827Z,4.80
2023-04-16T00:33:41.616Z,4.68
2023-04-16T00:36:08.377Z,5.72
2023-04-16T00:38:35.462Z,7.53
2023-04-16T00:41:02.458Z,5.35
2023-04-16T00:43:30.671Z,4.80
2023-04-16T00:45:57.760Z,8.85
2023-04-16T00:48:27.745Z,3.97
2023-04-16T00:50:55.382Z,8.13
2023-04-16T00:53:22.297Z,4.38
2023-04-16T00:55:49.250Z,4.82
2023-04-16T00:58:16.602Z,3.75
2023-04-16T01:00:43.333Z,5.68
2023-04-16T01:03:10.723Z,6.35
2023-04-16T01:05:37.957Z,5.05
2023-04-16T01:08:05.045Z,4.25
2023-04-16T01:10:31.868Z,3.47
2023-04-16T01:12:58.645Z,3.80
2023-04-16T01:15:25.433Z,5.40
2023-04-16T01:17:52.274Z,4.55
2023-04-16T01:20:19.191Z,5.50
2023-04-16T01:22:45.908Z,6.13
2023-04-16T01:25:16.225Z,4.47
2023-04-16T01:27:43.086Z,4.78
2023-04-16T01:30:10.119Z,4.00
2023-04-16T01:32:50.335Z,7.00
2023-04-16T01:35:18.321Z,5.10
2023-04-16T01:37:45.129Z,3.78
2023-04-16T01:40:11.992Z,4.00
2023-04-16T01:42:38.845Z,4.47
2023-04-16T01:45:06.236Z,4.38
2023-04-16T01:47:33.046Z,5.85
2023-04-16T01:50:00.762Z,5.95
2023-04-16T01:52:27.555Z,3.63
2023-04-16T01:54:54.281Z,3.80
2023-04-16T01:57:21.052Z,3.83
2023-04-16T01:59:47.791Z,3.47
2023-04-16T02:02:16.246Z,5.25
2023-04-16T02:04:46.556Z,4.80
2023-04-16T02:07:13.611Z,4.63
2023-04-16T02:09:41.306Z,5.15
2023-04-16T02:12:11.271Z,4.97
2023-04-16T02:17:05.061Z,4.60
2023-04-16T02:19:40.786Z,4.63
2023-04-16T02:22:09.228Z,5.68
2023-04-16T02:24:35.967Z,6.13
2023-04-16T02:27:07.110Z,7.05
2023-04-16T02:29:34.018Z,5.50
2023-04-16T02:32:09.190Z,6.40
2023-04-16T02:34:36.691Z,6.90
2023-04-16T02:37:04.261Z,5.72
2023-04-16T02:39:31.160Z,5.00
2023-04-16T02:41:59.337Z,7.18
2023-04-16T02:44:26.746Z,5.67
2023-04-16T02:46:53.545Z,6.97
2023-04-16T02:49:20.327Z,8.95
2023-04-16T02:51:48.492Z,7.95
2023-04-16T02:54:15.547Z,8.07
2023-04-16T02:56:42.293Z,6.53
2023-04-16T02:59:09.332Z,7.30
2023-04-16T03:01:36.308Z,8.80
2023-04-16T03:04:03.405Z,7.60
2023-04-16T03:06:30.303Z,7.00
2023-04-16T03:08:57.253Z,7.78
2023-04-16T03:11:23.982Z,8.57
2023-04-16T03:13:50.827Z,8.63
2023-04-16T03:16:17.656Z,8.35
2023-04-16T03:18:44.520Z,7.40
2023-04-16T03:21:11.628Z,6.85
2023-04-16T03:23:38.365Z,6.85
2023-04-16T03:26:05.297Z,7.18
2023-04-16T03:28:32.246Z,9.10
2023-04-16T03:30:59.118Z,7.65
2023-04-16T03:33:26.166Z,7.60
2023-04-16T03:35:57.457Z,9.43
2023-04-16T03:38:26.686Z,8.93
2023-04-16T03:40:56.101Z,6.57
2023-04-16T03:43:22.999Z,8.93
2023-04-16T03:45:50.158Z,9.90
2023-04-16T03:48:19.206Z,8.60
2023-04-16T03:50:47.588Z,7.45
2023-04-16T03:53:16.447Z,7.20
2023-04-16T03:55:43.345Z,10.50
2023-04-16T03:58:11.027Z,7.82
2023-04-16T04:00:37.886Z,12.73
2023-04-16T04:03:13.828Z,10.40
2023-04-16T04:05:42.677Z,7.53
2023-04-16T04:08:11.494Z,9.48
2023-04-16T04:10:38.589Z,10.85
2023-04-16T04:13:07.182Z,9.77
2023-04-16T04:15:35.945Z,11.60
2023-04-16T04:18:02.788Z,12.73
2023-04-16T04:20:29.609Z,9.38
2023-04-16T04:22:57.012Z,10.02
2023-04-16T04:25:26.901Z,10.02
2023-04-16T04:27:53.874Z,9.77
2023-04-16T04:30:20.744Z,10.23
2023-04-16T04:32:47.546Z,9.20
2023-04-16T04:35:15.989Z,8.25
2023-04-16T04:37:43.092Z,9.85
2023-04-16T04:40:16.958Z,11.32
2023-04-16T04:42:44.563Z,13.23
2023-04-16T04:45:11.622Z,12.98
2023-04-16T04:47:38.514Z,9.82
2023-04-16T04:50:06.152Z,7.22
2023-04-16T04:52:33.457Z,11.32
2023-04-16T04:55:01.699Z,11.02
2023-04-16T04:57:30.044Z,9.63
2023-04-16T04:59:56.889Z,9.93
2023-04-16T05:02:23.991Z,11.30
2023-04-16T05:04:50.817Z,8.70
2023-04-16T05:07:17.618Z,10.57
2023-04-16T05:09:44.383Z,12.63
2023-04-16T05:12:11.105Z,12.45
2023-04-16T05:14:37.898Z,9.75
2023-04-16T05:17:04.638Z,10.93
2023-04-16T05:19:31.572Z,11.13
2023-04-16T05:21:58.328Z,13.98
2023-04-16T05:24:25.110Z,11.60
2023-04-16T05:26:51.862Z,10.80
2023-04-16T05:29:18.648Z,12.30
2023-04-16T05:31:45.618Z,9.43
2023-04-16T05:34:12.388Z,12.52
2023-04-16T05:36:39.109Z,12.23
2023-04-16T05:39:06.124Z,12.38
2023-04-16T05:41:33.067Z,12.73
2023-04-16T05:44:00.041Z,13.45
2023-04-16T05:46:26.843Z,13.65
2023-04-16T05:48:53.685Z,12.57
2023-04-16T05:51:23.076Z,12.82
2023-04-16T05:53:49.913Z,10.60
2023-04-16T05:56:16.660Z,11.60
2023-04-16T05:58:43.415Z,11.20
2023-04-16T06:01:11.450Z,12.93
2023-04-16T06:03:38.335Z,13.00
2023-04-16T06:06:05.306Z,9.38
2023-04-16T06:08:32.068Z,11.57
2023-04-16T06:10:58.790Z,13.70
2023-04-16T06:13:25.549Z,10.80
2023-04-16T06:15:52.320Z,12.55
2023-04-16T06:18:19.099Z,13.32
2023-04-16T06:20:45.941Z,14.50
2023-04-16T06:23:12.663Z,14.48
2023-04-16T06:25:39.388Z,13.52
2023-04-16T06:28:06.135Z,12.57
2023-04-16T06:30:32.886Z,15.77
2023-04-16T06:32:59.666Z,11.60
2023-04-16T06:35:26.485Z,13.25
2023-04-16T06:37:53.198Z,18.92
2023-04-16T06:40:19.911Z,13.00
2023-04-16T06:42:46.680Z,20.45
2023-04-16T06:45:13.529Z,21.73
2023-04-16T06:47:40.612Z,22.20
2023-04-16T06:50:07.816Z,19.70
2023-04-16T06:52:34.704Z,15.60
2023-04-16T06:55:01.960Z,21.48
2023-04-16T06:57:28.828Z,19.48
2023-04-16T06:59:55.604Z,20.70
2023-04-16T07:02:22.447Z,15.18
2023-04-16T07:04:49.206Z,16.73
2023-04-16T07:07:15.954Z,16.77
2023-04-16T07:09:42.712Z,20.52
2023-04-16T07:12:09.619Z,22.70
2023-04-16T07:14:36.419Z,19.42
2023-04-16T07:17:03.165Z,17.92
2023-04-16T07:19:32.517Z,18.55
2023-04-16T07:21:59.921Z,14.77
2023-04-16T07:24:28.104Z,17.23
2023-04-16T07:26:54.821Z,15.35
2023-04-16T07:29:21.532Z,12.32
2023-04-16T07:31:48.707Z,17.30
2023-04-16T07:34:15.588Z,14.85
2023-04-16T07:36:42.294Z,13.77
2023-04-16T07:39:10.870Z,11.85
2023-04-16T07:41:37.842Z,13.85
2023-04-16T07:44:04.752Z,12.95
2023-04-16T07:46:45.613Z,12.93
2023-04-16T07:49:13.527Z,15.93
2023-04-16T07:51:40.544Z,13.90
2023-04-16T07:54:07.416Z,11.98
2023-04-16T07:56:34.168Z,17.88
2023-04-16T07:59:18.402Z,12.23
2023-04-16T08:01:47.622Z,17.50
2023-04-16T08:04:14.475Z,12.40
2023-04-16T08:06:41.383Z,16.83
2023-04-16T08:09:08.313Z,17.00
2023-04-16T08:11:35.306Z,13.75
2023-04-16T08:14:02.028Z,13.90
2023-04-16T08:16:28.811Z,15.07
2023-04-16T08:18:55.692Z,13.88
2023-04-16T08:21:22.504Z,15.02
2023-04-16T08:23:49.237Z,13.95
2023-04-16T08:26:17.473Z,16.35
2023-04-16T08:28:44.233Z,18.67
2023-04-16T08:31:11.320Z,13.75
2023-04-16T08:33:38.084Z,12.00
2023-04-16T08:36:05.115Z,14.68
2023-04-16T08:38:31.839Z,14.45
2023-04-16T08:41:03.182Z,12.43
2023-04-16T08:43:33.551Z,12.52
2023-04-16T08:46:01.227Z,14.75
2023-04-16T08:48:33.747Z,13.10
2023-04-16T08:51:01.661Z,12.55
2023-04-16T08:53:49.262Z,12.15
2023-04-16T08:56:16.253Z,24.25
2023-04-16T08:58:43.140Z,22.10
2023-04-16T09:01:10.968Z,22.15
2023-04-16T09:03:38.271Z,18.88
2023-04-16T09:06:05.611Z,16.25
2023-04-16T09:08:32.508Z,16.30
2023-04-16T09:10:59.756Z,19.20
2023-04-16T09:13:26.965Z,22.25
2023-04-16T09:15:54.399Z,15.75
2023-04-16T09:18:21.388Z,18.67
2023-04-16T09:20:49.325Z,22.55
2023-04-16T09:23:16.058Z,14.63
2023-04-16T09:25:42.798Z,15.85
2023-04-16T09:28:10.390Z,14.90
2023-04-16T09:30:37.583Z,12.65
2023-04-16T09:33:24.329Z,15.00
2023-04-16T09:35:52.988Z,14.98
2023-04-16T09:38:20.425Z,17.45
2023-04-16T09:40:47.611Z,17.70
2023-04-16T09:43:16.676Z,15.65
2023-04-16T09:45:54.176Z,16.23
2023-04-16T09:48:31.489Z,21.98
2023-04-16T09:50:59.340Z,14.80
2023-04-16T09:53:28.023Z,12.20
2023-04-16T09:55:58.994Z,16.40
2023-04-16T09:58:26.105Z,18.85
2023-04-16T10:01:10.814Z,25.85
2023-04-16T10:03:39.484Z,17.48
2023-04-16T10:06:19.382Z,15.05
2023-04-16T10:08:50.647Z,18.05
2023-04-16T10:11:18.396Z,18.08
2023-04-16T10:13:45.508Z,16.60
2023-04-16T10:16:12.626Z,19.83
2023-04-16T10:18:41.564Z,11.98
2023-04-16T10:21:11.706Z,15.98
2023-04-16T10:23:43.266Z,15.73
2023-04-16T10:26:09.988Z,16.60
2023-04-16T10:28:37.059Z,14.25
2023-04-16T10:31:06.348Z,26.52
2023-04-16T10:36:27.140Z,15.85
2023-04-16T10:38:58.041Z,17.60
2023-04-16T10:41:26.713Z,15.50
2023-04-16T10:43:53.960Z,25.88
2023-04-16T10:46:26.856Z,22.95
2023-04-16T10:48:55.002Z,30.27
2023-04-16T10:51:24.953Z,21.90
2023-04-16T10:53:51.910Z,23.15
2023-04-16T10:56:27.957Z,22.08
2023-04-16T10:58:56.320Z,24.70
2023-04-16T11:01:34.813Z,16.87
2023-04-16T11:04:22.874Z,19.63
2023-04-16T11:07:16.238Z,21.20
2023-04-16T11:09:52.120Z,17.58
2023-04-16T11:12:24.433Z,16.35
2023-04-16T11:14:53.174Z,14.95
2023-04-16T11:17:21.015Z,15.70
2023-04-16T11:19:48.279Z,16.00
2023-04-16T11:22:17.286Z,15.20
2023-04-16T11:24:45.630Z,14.95
2023-04-16T11:27:16.658Z,24.27
2023-04-16T11:29:45.078Z,15.30
2023-04-16T11:32:21.882Z,17.80
2023-04-16T11:34:48.711Z,20.85
2023-04-16T11:37:15.591Z,15.27
2023-04-16T11:39:52.772Z,21.58
2023-04-16T11:42:21.555Z,17.50
2023-04-16T11:44:55.505Z,18.85
2023-04-16T11:47:25.495Z,16.45
2023-04-16T11:49:52.927Z,22.98
2023-04-16T11:52:33.207Z,19.77
2023-04-16T11:55:00.162Z,16.40
2023-04-16T11:57:31.948Z,17.55
2023-04-16T12:00:01.554Z,21.52
2023-04-16T12:02:40.744Z,21.13
2023-04-16T12:05:32.725Z,14.10
2023-04-16T12:08:07.032Z,16.48
2023-04-16T12:10:52.991Z,16.17
2023-04-16T12:13:19.829Z,16.25
2023-04-16T12:15:56.989Z,15.07
2023-04-16T12:18:26.976Z,19.15
2023-04-16T12:20:54.086Z,29.98
2023-04-16T12:23:32.894Z,40.90
2023-04-16T12:26:10.450Z,40.60
2023-04-16T12:28:38.547Z,37.00
2023-04-16T12:31:06.009Z,33.45
2023-04-16T12:33:32.996Z,37.03
2023-04-16T12:35:59.973Z,41.50
2023-04-16T12:38:27.654Z,100.65
2023-04-16T12:40:57.109Z,103.80
2023-04-16T12:43:25.087Z,100.28
2023-04-16T12:45:52.006Z,86.20
2023-04-16T12:48:18.892Z,66.57
2023-04-16T12:50:46.043Z,54.20
2023-04-16T12:53:12.930Z,39.47
2023-04-16T12:55:39.850Z,46.00
2023-04-16T12:58:06.865Z,38.53
2023-04-16T13:00:33.698Z,35.63
2023-04-16T13:03:01.091Z,27.80
2023-04-16T13:05:28.014Z,30.48
2023-04-16T13:07:55.001Z,28.73
2023-04-16T13:10:23.443Z,30.15
2023-04-16T13:12:50.564Z,37.80
2023-04-16T13:15:17.388Z,21.05
2023-04-16T13:17:44.400Z,19.83
2023-04-16T13:20:11.584Z,23.45
2023-04-16T13:22:38.815Z,24.83
2023-04-16T13:25:06.240Z,26.92
2023-04-16T13:27:33.227Z,21.65
2023-04-16T13:30:00.707Z,31.88
2023-04-16T13:32:27.890Z,39.42
2023-04-16T13:34:55.004Z,47.30
2023-04-16T13:37:22.118Z,37.80
2023-04-16T13:39:49.026Z,26.30
2023-04-16T13:42:16.936Z,23.75
2023-04-16T13:44:43.835Z,27.25
2023-04-16T13:47:11.347Z,26.60
2023-04-16T13:49:38.305Z,24.23
2023-04-16T13:52:05.298Z,23.13
2023-04-16T13:54:32.187Z,24.17
2023-04-16T13:56:59.176Z,26.58
2023-04-16T13:59:26.666Z,20.33
2023-04-16T14:01:53.597Z,22.67
2023-04-16T14:04:22.550Z,27.52
2023-04-16T14:06:49.880Z,23.88
2023-04-16T14:09:16.684Z,21.65
2023-04-16T14:11:43.530Z,21.17
2023-04-16T14:14:10.437Z,18.88
2023-04-16T14:16:37.477Z,18.65
2023-04-16T14:19:04.290Z,19.85
2023-04-16T14:21:31.322Z,26.25
2023-04-16T14:23:58.116Z,30.45
2023-04-16T14:26:25.080Z,44.05
2023-04-16T14:28:52.159Z,47.40
2023-04-16T14:31:20.007Z,43.42
2023-04-16T14:33:47.263Z,55.83
2023-04-16T14:36:14.362Z,63.53
2023-04-16T14:38:43.352Z,48.50
2023-04-16T14:43:41.246Z,39.70
2023-04-16T14:46:08.366Z,42.67
2023-04-16T14:48:35.608Z,45.88
2023-04-16T14:51:02.710Z,31.73
2023-04-16T14:53:29.651Z,55.30
2023-04-16T14:55:59.068Z,66.35
2023-04-16T14:58:26.408Z,63.75
2023-04-16T15:00:53.532Z,52.40
2023-04-16T15:03:20.779Z,59.50
2023-04-16T15:05:54.811Z,56.17
2023-04-16T15:08:22.836Z,78.65
2023-04-16T15:10:50.298Z,83.05
2023-04-16T15:13:17.810Z,82.82
2023-04-16T15:15:44.760Z,93.60
2023-04-16T15:18:11.695Z,87.88
2023-04-16T15:20:38.623Z,99.65
2023-04-16T15:23:05.373Z,75.60
2023-04-16T15:25:32.193Z,68.68
2023-04-16T15:27:59.411Z,65.28
2023-04-16T15:30:26.203Z,79.72
2023-04-16T15:32:54.939Z,69.53
2023-04-16T15:35:22.081Z,71.25
2023-04-16T15:37:48.974Z,63.72
2023-04-16T15:40:18.764Z,54.45
2023-04-16T15:42:45.635Z,53.20
2023-04-16T15:45:12.413Z,44.95
2023-04-16T15:47:41.703Z,46.67
2023-04-16T15:50:09.070Z,46.40
2023-04-16T15:52:36.520Z,66.10
2023-04-16T15:55:04.458Z,50.47
2023-04-16T15:57:31.410Z,63.05
2023-04-16T16:00:06.043Z,41.22
2023-04-16T16:02:34.376Z,38.03
2023-04-16T16:05:01.748Z,38.05
2023-04-16T16:07:28.687Z,26.33
2023-04-16T16:09:56.283Z,27.95
2023-04-16T16:12:23.505Z,43.05
2023-04-16T16:14:50.306Z,37.88
2023-04-16T16:17:17.780Z,39.40
2023-04-16T16:19:46.413Z,37.33
2023-04-16T16:22:13.979Z,35.30
2023-04-16T16:24:40.875Z,39.42
2023-04-16T16:27:07.924Z,46.97
2023-04-16T16:29:35.006Z,32.75
2023-04-16T16:32:01.982Z,50.08
2023-04-16T16:34:31.888Z,131.85
2023-04-16T16:36:58.757Z,46.67
2023-04-16T16:39:26.606Z,53.33
2023-04-16T16:41:53.361Z,51.25
2023-04-16T16:44:20.727Z,40.38
2023-04-16T16:46:47.837Z,35.67
2023-04-16T16:49:16.018Z,33.28
2023-04-16T16:51:45.927Z,32.63
2023-04-16T16:54:13.049Z,33.17
2023-04-16T16:56:40.164Z,33.88
2023-04-16T16:59:08.660Z,33.33
2023-04-16T17:01:35.942Z,41.90
2023-04-16T17:04:06.225Z,31.08
2023-04-16T17:06:33.646Z,25.67
2023-04-16T17:09:01.004Z,27.23
2023-04-16T17:11:29.360Z,33.80
2023-04-16T17:13:56.330Z,46.97
2023-04-16T17:16:24.137Z,47.22
2023-04-16T17:18:51.287Z,39.92
2023-04-16T17:21:18.074Z,35.30
2023-04-16T17:23:45.014Z,38.22
2023-04-16T17:26:11.783Z,28.20
2023-04-16T17:28:38.746Z,34.65
2023-04-16T17:31:08.486Z,27.92
2023-04-16T17:33:35.758Z,33.15
2023-04-16T17:36:02.866Z,26.73
2023-04-16T17:38:29.737Z,31.13
2023-04-16T17:40:57.117Z,27.30
2023-04-16T17:43:24.181Z,23.67
2023-04-16T17:45:51.115Z,20.52
2023-04-16T17:48:17.878Z,25.88
2023-04-16T17:50:44.635Z,22.65
2023-04-16T17:53:11.524Z,21.63
2023-04-16T17:55:38.336Z,17.67
2023-04-16T17:58:05.316Z,25.20
2023-04-16T18:00:32.079Z,21.40
2023-04-16T18:02:59.772Z,19.15
2023-04-16T18:05:27.377Z,28.33
2023-04-16T18:07:55.391Z,17.08
2023-04-16T18:10:22.264Z,23.73
2023-04-16T18:12:49.096Z,28.33
2023-04-16T18:15:16.434Z,24.88
2023-04-16T18:17:43.302Z,21.38
2023-04-16T18:20:11.664Z,17.85
2023-04-16T18:22:38.406Z,20.07
2023-04-16T18:25:06.615Z,29.13
2023-04-16T18:27:33.417Z,23.70
2023-04-16T18:30:00.290Z,19.48
2023-04-16T18:32:30.788Z,24.08
2023-04-16T18:34:58.110Z,20.02
2023-04-16T18:37:24.858Z,22.70
2023-04-16T18:39:51.568Z,19.10
2023-04-16T18:42:18.295Z,22.40
2023-04-16T18:44:51.774Z,23.60
2023-04-16T18:47:18.625Z,30.05
2023-04-16T18:49:45.469Z,32.03
2023-04-16T18:52:12.395Z,18.85
2023-04-16T18:54:39.154Z,21.23
2023-04-16T18:57:06.093Z,22.92
2023-04-16T18:59:32.973Z,17.60
2023-04-16T19:01:59.893Z,25.35
2023-04-16T19:04:26.801Z,19.50
2023-04-16T19:06:53.559Z,17.83
2023-04-16T19:09:20.274Z,21.10
2023-04-16T19:11:48.464Z,18.08
2023-04-16T19:14:15.593Z,15.68
2023-04-16T19:16:42.477Z,19.58
2023-04-16T19:19:09.403Z,17.40
2023-04-16T19:21:37.047Z,15.02
2023-04-16T19:24:03.907Z,16.23
2023-04-16T19:26:30.773Z,14.80
2023-04-16T19:28:57.508Z,16.33
2023-04-16T19:31:26.084Z,14.25
2023-04-16T19:33:52.831Z,24.30
2023-04-16T19:36:19.550Z,21.08
2023-04-16T19:38:46.272Z,17.48
2023-04-16T19:41:12.994Z,18.08
2023-04-16T19:43:39.746Z,12.80
2023-04-16T19:46:06.534Z,23.02
2023-04-16T19:48:33.342Z,23.92
2023-04-16T19:51:03.990Z,16.60
2023-04-16T19:53:30.930Z,19.95
2023-04-16T19:55:57.688Z,19.73
2023-04-16T19:58:25.311Z,15.93
2023-04-16T20:00:52.124Z,20.63
2023-04-16T20:03:18.997Z,18.75
2023-04-16T20:05:48.650Z,18.73
2023-04-16T20:08:15.701Z,15.98
2023-04-16T20:10:42.442Z,18.90
2023-04-16T20:13:12.003Z,22.73
2023-04-16T20:15:38.838Z,18.65
2023-04-16T20:18:07.289Z,23.52
2023-04-16T20:20:38.036Z,18.33
2023-04-16T20:23:05.197Z,27.92
2023-04-16T20:25:31.996Z,33.92
2023-04-16T20:27:58.710Z,43.15
2023-04-16T20:30:29.385Z,54.80
2023-04-16T20:32:56.510Z,39.38
2023-04-16T20:35:23.391Z,29.52
2023-04-16T20:37:50.202Z,34.10
2023-04-16T20:40:17.121Z,37.45
2023-04-16T20:42:46.290Z,26.33
2023-04-16T20:45:13.329Z,31.98
2023-04-16T20:47:40.114Z,25.42
2023-04-16T20:50:07.626Z,23.67
2023-04-16T20:52:34.439Z,27.02
2023-04-16T20:55:01.688Z,30.00
2023-04-16T20:57:29.634Z,30.73
2023-04-16T20:59:56.569Z,27.00
2023-04-16T21:02:24.283Z,23.40
2023-04-16T21:04:51.401Z,25.77
2023-04-16T21:07:18.204Z,30.80
2023-04-16T21:09:44.975Z,24.52
2023-04-16T21:12:11.857Z,34.10
2023-04-16T21:14:38.600Z,23.20
2023-04-16T21:17:05.506Z,23.75
2023-04-16T21:19:32.253Z,24.38
2023-04-16T21:21:58.965Z,22.35
2023-04-16T21:24:25.775Z,17.20
2023-04-16T21:26:52.596Z,17.95
2023-04-16T21:29:19.370Z,20.35
2023-04-16T21:31:46.300Z,21.20
2023-04-16T21:34:13.032Z,19.52
2023-04-16T21:36:39.750Z,16.98
2023-04-16T21:39:06.490Z,21.25
2023-04-16T21:41:33.330Z,22.75
2023-04-16T21:44:00.194Z,19.75
2023-04-16T21:46:27.710Z,18.08
2023-04-16T21:48:54.468Z,16.45
2023-04-16T21:51:28.822Z,17.45
2023-04-16T21:53:58.636Z,24.50
2023-04-16T21:56:26.047Z,20.40
2023-04-16T21:58:52.787Z,17.83
2023-04-16T22:01:19.852Z,19.95
2023-04-16T22:03:50.575Z,18.27
2023-04-16T22:06:17.830Z,24.88
2023-04-16T22:08:44.569Z,19.90
2023-04-16T22:11:11.280Z,16.95
2023-04-16T22:13:42.006Z,13.82
2023-04-16T22:16:11.514Z,21.05
2023-04-16T22:18:38.751Z,15.05
2023-04-16T22:21:05.571Z,16.70
2023-04-16T22:23:32.404Z,17.73
2023-04-16T22:25:59.125Z,16.65
2023-04-16T22:28:26.047Z,18.00
2023-04-16T22:30:52.817Z,16.52
2023-04-16T22:33:22.405Z,16.35
2023-04-16T22:35:49.162Z,17.25
2023-04-16T22:38:16.510Z,15.93
2023-04-16T22:40:43.299Z,19.40
2023-04-16T22:43:10.021Z,16.55
2023-04-16T22:45:37.437Z,16.15
2023-04-16T22:48:04.499Z,15.63
2023-04-16T22:50:31.980Z,22.50
2023-04-16T22:52:58.726Z,15.00
2023-04-16T22:55:25.542Z,16.33
2023-04-16T22:57:52.276Z,14.75
2023-04-16T23:00:19.382Z,13.52
2023-04-16T23:02:46.466Z,15.07
2023-04-16T23:05:13.362Z,14.73
2023-04-16T23:07:40.455Z,15.02
2023-04-16T23:10:08.657Z,14.80
2023-04-16T23:12:38.854Z,17.30
2023-04-16T23:15:06.785Z,15.18
2023-04-16T23:17:34.867Z,17.30
2023-04-16T23:20:01.690Z,15.18
2023-04-16T23:22:28.471Z,17.38
2023-04-16T23:24:55.240Z,19.15
2023-04-16T23:27:22.013Z,14.93
2023-04-16T23:29:48.847Z,20.20
2023-04-16T23:32:15.757Z,17.75
2023-04-16T23:34:42.461Z,29.92
2023-04-16T23:37:09.286Z,25.00
2023-04-16T23:39:36.100Z,18.75
2023-04-16T23:42:03.668Z,19.15
2023-04-16T23:44:30.771Z,21.15
2023-04-16T23:46:57.637Z,19.60
2023-04-16T23:49:24.843Z,19.83
2023-04-16T23:51:51.633Z,20.40
2023-04-16T23:54:18.687Z,16.40
2023-04-16T23:56:45.537Z,14.80
2023-04-16T23:59:12.759Z,19.85
